Time;durP1;ratioP1;P1;durP2;ratioP2;P2;SDS_P1;SDS_P2;PMS_P1;PMS_P2;Temp;Humidity;BMP_temperature;BMP_pressure;BME280_temperature;BME280_humidity;BME280_pressure;Samples;Min_cycle;Max_cycle;Signal;HPM_P1;HPM_P2
2021/10/02 00:34:44;;;;;;;2.90;1.75;;;13.90;91.40;;;;;;2027664;29;20040;-96
2021/10/02 00:37:44;;;;;;;3.83;2.03;;;13.90;91.40;;;;;;2043183;29;20044;-96
2021/10/02 00:45:40;;;;;;;2.45;1.90;;;13.90;91.40;;;;;;2050582;29;20043;-96
2021/10/02 00:46:59;;;;;;;4.28;2.28;;;13.90;91.50;;;;;;2051197;28;20024;-96
2021/10/02 00:48:19;;;;;;;2.90;2.00;;;14.00;91.50;;;;;;2042859;29;20579;-96
2021/10/02 00:49:41;;;;;;;3.55;2.50;;;14.00;91.50;;;;;;2032256;29;20036;-96
2021/10/02 00:51:03;;;;;;;3.75;2.58;;;14.00;91.50;;;;;;2032982;29;20036;-96
2021/10/02 00:52:23;;;;;;;3.42;2.30;;;14.00;91.60;;;;;;2041224;29;20127;-96
2021/10/02 00:53:42;;;;;;;3.45;2.50;;;14.00;91.60;;;;;;2046718;28;20063;-96
2021/10/02 00:55:02;;;;;;;3.72;2.42;;;14.00;91.60;;;;;;2036905;29;20497;-96
2021/10/02 00:56:21;;;;;;;3.63;2.42;;;14.00;91.60;;;;;;2040001;29;20032;-96
2021/10/02 00:57:41;;;;;;;5.28;2.75;;;14.00;91.60;;;;;;2039956;29;20043;-96
2021/10/02 00:59:02;;;;;;;4.72;3.10;;;14.00;91.60;;;;;;2047430;29;20047;-96
2021/10/02 01:00:25;;;;;;;4.90;2.85;;;14.00;91.60;;;;;;2042603;29;20051;-96
2021/10/02 01:01:53;;;;;;;3.92;2.83;;;14.00;91.60;;;;;;2041432;29;20043;-96
2021/10/02 01:03:21;;;;;;;3.80;2.55;;;14.00;91.60;;;;;;2048213;29;20039;-96
2021/10/02 01:05:10;;;;;;;4.95;3.08;;;14.00;91.60;;;;;;2051157;29;20051;-96
2021/10/02 01:06:51;;;;;;;5.60;3.17;;;14.00;91.60;;;;;;2042273;29;20123;-96
2021/10/02 01:08:26;;;;;;;5.43;3.22;;;14.00;91.60;;;;;;2037025;29;20040;-96
2021/10/02 01:10:11;;;;;;;3.42;2.67;;;14.00;91.60;;;;;;2049825;29;20518;-96
2021/10/02 01:11:40;;;;;;;5.07;3.40;;;14.00;91.60;;;;;;2050582;28;20047;-96
2021/10/02 01:13:08;;;;;;;4.80;3.45;;;14.00;91.60;;;;;;2043820;29;20032;-96
2021/10/02 01:14:51;;;;;;;4.40;3.33;;;14.00;91.60;;;;;;2051469;28;20035;-96
2021/10/02 01:16:21;;;;;;;5.35;3.15;;;14.10;91.60;;;;;;2051017;28;20087;-95
2021/10/02 01:18:14;;;;;;;5.00;3.83;;;14.00;91.90;;;;;;2052906;28;20051;-96
2021/10/02 01:19:54;;;;;;;5.22;3.30;;;14.00;91.60;;;;;;2020225;29;20092;-94
2021/10/02 01:21:20;;;;;;;5.33;3.30;;;14.00;91.60;;;;;;2051878;29;20046;-96
2021/10/02 01:23:02;;;;;;;5.70;3.65;;;14.00;91.60;;;;;;2052832;29;20287;-95
2021/10/02 01:24:58;;;;;;;5.18;3.58;;;14.00;91.60;;;;;;2046957;29;20039;-96
2021/10/02 01:26:55;;;;;;;6.18;3.45;;;14.00;91.60;;;;;;2050221;28;20031;-96
2021/10/02 01:28:17;;;;;;;4.95;3.53;;;14.10;91.60;;;;;;2051273;29;20035;-95
2021/10/02 01:29:38;;;;;;;5.97;3.78;;;14.00;91.80;;;;;;2044732;29;20036;-96
2021/10/02 01:31:07;;;;;;;;;;;14.00;91.60;;;;;;2041001;29;20040;-96
2021/10/02 01:32:33;;;;;;;4.78;3.40;;;14.00;91.50;;;;;;2046519;29;19918;-95
2021/10/02 01:36:06;;;;;;;6.30;4.28;;;14.00;91.60;;;;;;2047308;29;20114;-96
2021/10/02 01:37:37;;;;;;;4.80;3.33;;;14.00;91.60;;;;;;2051394;29;20047;-95
2021/10/02 01:47:43;;;;;;;6.40;4.10;;;14.00;91.60;;;;;;2044571;29;20243;-96
2021/10/02 01:49:03;;;;;;;6.20;3.95;;;14.00;91.60;;;;;;2043892;29;20035;-96
2021/10/02 01:50:35;;;;;;;6.38;4.30;;;14.00;91.60;;;;;;2048109;28;20095;-96
2021/10/02 01:51:56;;;;;;;5.97;4.13;;;14.00;91.60;;;;;;2028103;29;20513;-96
2021/10/02 01:53:26;;;;;;;6.43;4.35;;;14.00;91.70;;;;;;2039496;29;20027;-95
2021/10/02 01:54:48;;;;;;;5.57;4.22;;;14.00;91.70;;;;;;2053535;28;20039;-96
2021/10/02 01:56:11;;;;;;;4.47;3.50;;;14.00;91.70;;;;;;2027959;29;20040;-96
2021/10/02 01:57:42;;;;;;;5.32;3.80;;;14.00;91.70;;;;;;2038182;29;20047;-96
2021/10/02 01:59:12;;;;;;;5.88;3.67;;;14.00;91.70;;;;;;2050651;29;20043;-96
2021/10/02 02:00:38;;;;;;;5.30;4.00;;;14.00;91.70;;;;;;2040114;29;20122;-96
2021/10/02 02:01:59;;;;;;;7.15;4.32;;;14.10;91.70;;;;;;2032964;29;20044;-96
2021/10/02 02:03:21;;;;;;;5.80;3.92;;;14.00;91.70;;;;;;2042613;29;20503;-96
2021/10/02 02:04:41;;;;;;;5.68;4.07;;;14.00;91.70;;;;;;2047719;29;20571;-96
2021/10/02 02:06:04;;;;;;;7.28;3.90;;;14.10;91.80;;;;;;2037969;29;20531;-96
2021/10/02 02:07:27;;;;;;;6.72;4.00;;;14.10;91.80;;;;;;2040179;29;20067;-96
2021/10/02 02:08:47;;;;;;;6.18;3.83;;;14.10;91.80;;;;;;2040745;29;20063;-96
2021/10/02 02:10:08;;;;;;;5.93;4.68;;;14.10;91.80;;;;;;2034006;29;20052;-96
2021/10/02 02:11:31;;;;;;;6.45;4.28;;;14.10;91.80;;;;;;2032038;29;20044;-96
2021/10/02 02:12:53;;;;;;;5.28;4.00;;;14.10;91.80;;;;;;2041015;29;20039;-95
2021/10/02 02:14:16;;;;;;;6.32;4.30;;;14.10;91.80;;;;;;2046439;29;20063;-96
2021/10/02 02:15:39;;;;;;;7.32;4.72;;;14.10;91.80;;;;;;2042079;29;20048;-96
2021/10/02 02:17:02;;;;;;;5.47;4.18;;;14.10;91.80;;;;;;2030089;29;20505;-96
2021/10/02 02:18:25;;;;;;;6.47;4.22;;;14.10;91.80;;;;;;2029310;29;20044;-95
2021/10/02 02:19:49;;;;;;;5.55;4.10;;;14.10;91.80;;;;;;2039788;29;20040;-96
2021/10/02 02:21:14;;;;;;;5.70;4.13;;;14.10;91.80;;;;;;2043754;29;20107;-96
2021/10/02 02:22:37;;;;;;;5.57;3.92;;;14.10;91.80;;;;;;2050574;29;20483;-96
2021/10/02 02:24:16;;;;;;;;;;;;;;;;;;;;;
2021/10/02 02:25:36;;;;;;;6.50;4.22;;;14.10;91.80;;;;;;2042549;29;20508;-96
2021/10/02 02:26:57;;;;;;;6.30;4.40;;;14.00;91.80;;;;;;2046852;29;20107;-96
2021/10/02 02:28:18;;;;;;;5.85;4.50;;;14.10;91.80;;;;;;2040658;29;20045;-96
2021/10/02 02:29:38;;;;;;;5.75;4.55;;;14.10;91.80;;;;;;2052946;28;20047;-96
2021/10/02 02:31:16;;;;;;;5.95;4.47;;;14.10;92.10;;;;;;2050411;29;20040;-95
2021/10/02 02:32:35;;;;;;;5.97;4.25;;;14.10;91.90;;;;;;2042056;29;20024;-96
2021/10/02 02:33:57;;;;;;;5.53;4.15;;;14.00;91.80;;;;;;2032517;29;20044;-96
2021/10/02 02:35:21;;;;;;;5.57;4.35;;;14.10;91.90;;;;;;2031902;29;20052;-95
2021/10/02 02:36:43;;;;;;;6.15;4.38;;;14.00;91.80;;;;;;2045723;29;20118;-95
2021/10/02 02:38:04;;;;;;;6.07;4.22;;;14.10;91.90;;;;;;2050506;29;20031;-96
2021/10/02 02:39:24;;;;;;;5.97;4.22;;;14.10;91.90;;;;;;2045072;29;20465;-95
2021/10/02 02:40:52;;;;;;;7.07;4.22;;;14.00;91.90;;;;;;2041561;29;20036;-96
2021/10/02 02:42:14;;;;;;;5.32;4.00;;;14.00;91.80;;;;;;2042299;29;20059;-96
2021/10/02 02:43:34;;;;;;;5.93;4.10;;;14.00;91.90;;;;;;2036476;29;20036;-96
2021/10/02 02:44:55;;;;;;;5.85;4.07;;;14.00;91.90;;;;;;2039708;29;20504;-96
2021/10/02 02:46:38;;;;;;;5.80;4.07;;;14.00;91.90;;;;;;2040517;29;20032;-96
2021/10/02 02:48:01;;;;;;;6.25;4.57;;;14.00;91.90;;;;;;2050313;29;20035;-96
2021/10/02 02:49:28;;;;;;;6.57;4.40;;;14.00;91.90;;;;;;2049853;29;20039;-96
2021/10/02 02:51:00;;;;;;;5.32;3.88;;;14.00;91.90;;;;;;2042007;29;20019;-96
2021/10/02 02:52:21;;;;;;;5.97;3.90;;;14.00;91.90;;;;;;2048028;29;20027;-96
2021/10/02 02:53:46;;;;;;;6.00;4.05;;;14.00;91.90;;;;;;2050147;28;20056;-96
2021/10/02 02:55:09;;;;;;;5.65;3.72;;;14.00;91.90;;;;;;2049577;29;20071;-96
2021/10/02 02:56:47;;;;;;;6.95;5.30;;;14.00;91.90;;;;;;2042834;29;20040;-96
2021/10/02 02:58:07;;;;;;;5.63;4.03;;;14.00;91.90;;;;;;2042397;29;20047;-96
2021/10/02 02:59:37;;;;;;;8.35;5.05;;;14.00;91.90;;;;;;2046790;29;20047;-96
2021/10/02 03:01:01;;;;;;;6.22;4.43;;;14.00;91.90;;;;;;2043139;28;20047;-96
2021/10/02 03:02:25;;;;;;;6.80;4.82;;;14.00;91.90;;;;;;2048251;29;20039;-96
2021/10/02 03:03:51;;;;;;;6.93;4.68;;;14.00;91.90;;;;;;2042095;29;20043;-96
2021/10/02 03:05:13;;;;;;;6.55;4.63;;;14.00;91.90;;;;;;2042435;29;20039;-95
2021/10/02 03:06:37;;;;;;;7.25;4.75;;;14.00;91.90;;;;;;2047666;29;20035;-96
2021/10/02 03:08:06;;;;;;;6.47;4.72;;;14.00;92.00;;;;;;2057553;28;20423;-96
2021/10/02 03:09:34;;;;;;;5.50;4.07;;;14.00;92.00;;;;;;2042027;29;20130;-95
2021/10/02 03:11:00;;;;;;;6.20;4.40;;;14.00;92.00;;;;;;2048107;29;20035;-96
2021/10/02 03:12:30;;;;;;;6.32;4.22;;;14.00;92.00;;;;;;2042025;29;20043;-96
2021/10/02 03:13:55;;;;;;;5.72;4.30;;;14.00;92.00;;;;;;2048377;29;20043;-96
2021/10/02 03:15:16;;;;;;;6.35;4.32;;;14.00;92.00;;;;;;2042670;29;20048;-96
2021/10/02 03:16:41;;;;;;;6.13;4.00;;;14.00;92.00;;;;;;2042746;29;20126;-96
2021/10/02 03:18:02;;;;;;;7.32;4.30;;;14.00;92.00;;;;;;2043518;29;20043;-96
2021/10/02 03:19:24;;;;;;;5.68;4.32;;;14.00;92.00;;;;;;2038338;29;20075;-96
2021/10/02 03:20:53;;;;;;;6.70;4.22;;;14.00;92.00;;;;;;2042179;29;20036;-96
2021/10/02 03:22:15;;;;;;;5.97;4.00;;;14.00;92.00;;;;;;2048112;29;20519;-95
2021/10/02 03:23:34;;;;;;;;;;;14.00;92.00;;;;;;2029962;29;20071;-96
2021/10/02 03:24:58;;;;;;;5.40;4.10;;;14.00;91.90;;;;;;2035825;29;19993;-96
2021/10/02 03:26:19;;;;;;;6.50;4.20;;;14.00;91.90;;;;;;2046647;29;20035;-96
2021/10/02 03:27:39;;;;;;;6.50;4.43;;;14.00;92.00;;;;;;2042121;29;20044;-96
2021/10/02 03:28:59;;;;;;;6.15;4.00;;;14.00;92.00;;;;;;2041976;29;20040;-95
2021/10/02 03:30:20;;;;;;;7.25;4.80;;;14.00;92.00;;;;;;2032377;29;20033;-95
2021/10/02 03:31:43;;;;;;;6.88;4.53;;;14.00;92.00;;;;;;2044014;29;20035;-96
2021/10/02 03:33:03;;;;;;;5.43;4.45;;;14.00;92.00;;;;;;2050048;29;20039;-95
2021/10/02 03:34:26;;;;;;;6.20;4.82;;;14.00;92.00;;;;;;2049355;28;20043;-95
2021/10/02 03:36:00;;;;;;;;;;;;;;;;;;;;;
2021/10/02 03:37:25;;;;;;;6.68;4.70;;;14.00;92.00;;;;;;2049876;29;20051;-96
2021/10/02 03:38:45;;;;;;;8.57;5.00;;;14.00;92.00;;;;;;2042198;29;20466;-96
2021/10/02 03:40:06;;;;;;;6.97;5.10;;;14.00;92.00;;;;;;2041373;29;20039;-96
2021/10/02 03:41:25;;;;;;;9.32;5.47;;;14.00;92.00;;;;;;2047372;29;20035;-96
2021/10/02 03:42:47;;;;;;;6.88;5.38;;;14.00;92.00;;;;;;2049933;29;20462;-96
2021/10/02 03:44:06;;;;;;;7.38;5.43;;;14.00;92.00;;;;;;2044805;29;20035;-95
2021/10/02 03:45:28;;;;;;;7.38;5.63;;;14.00;92.10;;;;;;2041270;29;20035;-96
2021/10/02 03:46:47;;;;;;;7.47;5.65;;;14.00;92.10;;;;;;2047507;29;20050;-96
2021/10/02 03:48:07;;;;;;;8.30;5.30;;;14.00;92.10;;;;;;2037423;29;20497;-96
2021/10/02 03:49:29;;;;;;;7.25;5.00;;;14.00;92.10;;;;;;2043849;29;20162;-96
2021/10/02 03:50:49;;;;;;;6.88;4.95;;;14.00;92.10;;;;;;2042051;29;20516;-96
2021/10/02 03:52:12;;;;;;;7.13;4.93;;;14.00;92.10;;;;;;2046394;29;20040;-96
2021/10/02 03:53:35;;;;;;;7.30;4.95;;;14.00;92.10;;;;;;2044017;29;20044;-96
2021/10/02 03:54:54;;;;;;;6.78;5.22;;;14.00;92.10;;;;;;2042706;29;20106;-96
2021/10/02 03:56:13;;;;;;;6.22;5.20;;;14.00;92.10;;;;;;2043002;29;20044;-95
2021/10/02 03:57:33;;;;;;;7.25;4.85;;;14.00;92.10;;;;;;2039496;29;20047;-95
2021/10/02 03:58:52;;;;;;;6.65;5.05;;;14.00;92.10;;;;;;2034955;29;20032;-95
2021/10/02 04:00:23;;;;;;;7.78;5.18;;;14.00;92.10;;;;;;2030894;29;20040;-95
2021/10/02 04:01:42;;;;;;;;;;;14.00;92.10;;;;;;2047485;29;20047;-96
2021/10/02 04:03:02;;;;;;;7.40;4.65;;;13.90;92.00;;;;;;2050155;29;20426;-96
2021/10/02 04:04:22;;;;;;;6.97;5.10;;;13.90;92.00;;;;;;2045172;29;20428;-96
2021/10/02 04:05:41;;;;;;;;;;;13.90;92.00;;;;;;2041740;29;20115;-95
2021/10/02 04:07:03;;;;;;;5.95;4.60;;;13.90;92.00;;;;;;2040805;29;19919;-95
2021/10/02 04:08:22;;;;;;;6.72;4.75;;;13.90;92.10;;;;;;2041346;29;20456;-96
2021/10/02 04:09:42;;;;;;;9.07;5.25;;;13.90;92.00;;;;;;2041260;29;20575;-96
2021/10/02 04:11:07;;;;;;;7.95;5.30;;;13.90;92.10;;;;;;2026472;29;20037;-96
2021/10/02 04:12:27;;;;;;;9.60;6.00;;;13.90;92.10;;;;;;2033772;29;20083;-95
2021/10/02 04:13:46;;;;;;;8.05;5.80;;;13.90;92.10;;;;;;2033759;29;20043;-95
2021/10/02 04:15:06;;;;;;;8.45;6.10;;;13.90;92.30;;;;;;2041204;29;20047;-95
2021/10/02 04:16:26;;;;;;;7.80;5.72;;;13.90;92.10;;;;;;2043382;29;20043;-96
2021/10/02 04:17:45;;;;;;;8.05;5.88;;;13.90;92.20;;;;;;2043697;29;20039;-95
2021/10/02 04:19:04;;;;;;;7.07;5.68;;;13.80;92.10;;;;;;2040258;29;20040;-96
2021/10/02 04:20:24;;;;;;;7.85;5.72;;;13.90;92.20;;;;;;2047838;29;20066;-96
2021/10/02 04:21:44;;;;;;;7.28;5.20;;;13.90;92.20;;;;;;2051038;29;20071;-96
2021/10/02 04:23:03;;;;;;;6.97;5.50;;;13.90;92.20;;;;;;2039381;29;20504;-96
2021/10/02 04:24:24;;;;;;;7.10;5.68;;;13.90;92.20;;;;;;2042950;29;20051;-96
2021/10/02 04:25:43;;;;;;;7.07;5.43;;;13.90;92.20;;;;;;2043329;29;20036;-96
2021/10/02 04:27:03;;;;;;;8.10;6.30;;;13.80;92.20;;;;;;2047551;29;20035;-96
2021/10/02 04:28:25;;;;;;;7.78;6.07;;;13.80;92.20;;;;;;2051882;29;20035;-96
2021/10/02 04:29:44;;;;;;;7.00;5.63;;;13.90;92.20;;;;;;2051140;29;20074;-96
2021/10/02 04:31:04;;;;;;;8.23;5.63;;;13.90;92.20;;;;;;2043216;29;20044;-96
2021/10/02 04:32:23;;;;;;;9.15;6.25;;;13.90;92.20;;;;;;2048004;29;20524;-95
2021/10/02 04:33:43;;;;;;;7.95;5.60;;;13.90;92.20;;;;;;2048354;29;20091;-96
2021/10/02 04:35:04;;;;;;;8.32;6.00;;;13.90;92.20;;;;;;2045944;29;20032;-96
2021/10/02 04:36:23;;;;;;;;;;;13.80;92.20;;;;;;2044580;29;20055;-96
2021/10/02 04:37:48;;;;;;;7.40;5.45;;;13.90;92.10;;;;;;2038602;29;20306;-96
2021/10/02 04:39:10;;;;;;;7.50;5.55;;;13.90;92.20;;;;;;2037469;29;20059;-96
2021/10/02 04:40:31;;;;;;;7.28;5.40;;;13.80;92.10;;;;;;2036738;29;20043;-96
2021/10/02 04:41:54;;;;;;;8.80;5.95;;;13.80;92.10;;;;;;2043847;29;20040;-96
2021/10/02 04:43:16;;;;;;;7.80;5.80;;;13.80;92.10;;;;;;2035787;29;20445;-96
2021/10/02 04:44:48;;;;;;;;;;;;;;;;;;;;;
2021/10/02 04:46:09;;;;;;;9.13;6.05;;;13.90;92.20;;;;;;2051194;29;20038;-96
2021/10/02 04:47:31;;;;;;;8.15;6.00;;;13.80;92.20;;;;;;2043879;29;20036;-96
2021/10/02 04:48:52;;;;;;;7.93;5.72;;;13.80;92.20;;;;;;2040732;29;20057;-96
2021/10/02 04:50:13;;;;;;;7.63;6.07;;;13.80;92.20;;;;;;2027963;29;20481;-96
2021/10/02 04:51:32;;;;;;;8.95;6.63;;;13.90;92.20;;;;;;2040937;29;20043;-96
2021/10/02 04:52:57;;;;;;;8.38;6.43;;;13.80;92.20;;;;;;2041682;29;20044;-96
2021/10/02 04:54:19;;;;;;;7.95;6.10;;;13.80;92.20;;;;;;2046056;29;20032;-96
2021/10/02 04:55:39;;;;;;;8.45;6.65;;;13.90;92.20;;;;;;2056692;28;20031;-96
2021/10/02 04:57:03;;;;;;;9.25;6.90;;;13.80;92.20;;;;;;2047909;29;20489;-96
2021/10/02 04:58:29;;;;;;;7.82;6.03;;;13.80;92.20;;;;;;2036331;29;20068;-96
2021/10/02 04:59:49;;;;;;;8.27;6.07;;;13.80;92.20;;;;;;2031119;29;20044;-96
2021/10/02 05:01:12;;;;;;;7.75;6.20;;;13.80;92.20;;;;;;2048429;29;20031;-95
2021/10/02 05:02:34;;;;;;;7.38;5.80;;;13.80;92.20;;;;;;2051146;29;20039;-96
2021/10/02 05:03:58;;;;;;;7.60;6.20;;;13.80;92.20;;;;;;2045241;29;20115;-96
2021/10/02 05:05:18;;;;;;;8.30;6.40;;;13.80;92.20;;;;;;2055980;28;20039;-96
2021/10/02 05:06:45;;;;;;;8.18;6.32;;;13.80;92.20;;;;;;2054458;29;20035;-96
2021/10/02 05:08:09;;;;;;;7.20;5.88;;;13.80;92.20;;;;;;2051955;28;20064;-96
2021/10/02 05:09:29;;;;;;;8.95;6.47;;;13.80;92.20;;;;;;2048989;28;20182;-96
2021/10/02 05:10:51;;;;;;;8.55;6.15;;;13.80;92.20;;;;;;2044856;29;20032;-96
2021/10/02 05:12:11;;;;;;;7.78;5.45;;;13.80;92.20;;;;;;2042754;29;20047;-95
2021/10/02 05:13:38;;;;;;;8.43;5.93;;;13.80;92.20;;;;;;2051273;29;20036;-96
2021/10/02 05:14:59;;;;;;;8.38;5.90;;;13.80;92.20;;;;;;2052323;29;20024;-95
2021/10/02 05:16:19;;;;;;;7.85;6.32;;;13.80;92.20;;;;;;2052293;29;20039;-96
2021/10/02 05:17:38;;;;;;;7.88;6.57;;;13.80;92.20;;;;;;2049787;29;20103;-95
2021/10/02 05:18:58;;;;;;;7.60;5.85;;;13.80;92.20;;;;;;2036356;29;20036;-96
2021/10/02 05:20:17;;;;;;;7.53;6.20;;;13.80;92.20;;;;;;2044297;29;20043;-96
2021/10/02 05:21:41;;;;;;;7.90;5.95;;;13.80;92.20;;;;;;2051733;29;20035;-96
2021/10/02 05:23:01;;;;;;;8.98;6.28;;;13.80;92.20;;;;;;2043586;29;20035;-96
2021/10/02 05:24:23;;;;;;;8.93;6.47;;;13.70;92.20;;;;;;2048914;29;20463;-96
2021/10/02 05:25:42;;;;;;;7.78;6.20;;;13.80;92.30;;;;;;2052206;29;20040;-96
2021/10/02 05:27:06;;;;;;;7.97;6.03;;;13.70;92.20;;;;;;2044349;29;20515;-96
2021/10/02 05:28:25;;;;;;;8.25;5.90;;;13.70;92.30;;;;;;2043868;29;20039;-96
2021/10/02 05:29:58;;;;;;;8.80;6.18;;;13.80;92.30;;;;;;2040181;29;20024;-96
2021/10/02 05:31:17;;;;;;;7.65;6.20;;;13.70;92.30;;;;;;2036881;29;20131;-96
2021/10/02 05:32:36;;;;;;;7.78;6.40;;;13.70;92.30;;;;;;2047913;29;20039;-96
2021/10/02 05:33:55;;;;;;;8.68;6.30;;;13.70;92.30;;;;;;2035639;29;20489;-96
2021/10/02 05:35:18;;;;;;;7.97;6.22;;;13.70;92.30;;;;;;2037832;29;20060;-95
2021/10/02 05:36:39;;;;;;;7.30;6.20;;;13.70;92.30;;;;;;2045962;29;20039;-96
2021/10/02 05:38:01;;;;;;;8.13;6.15;;;13.70;92.30;;;;;;2030187;29;20115;-96
2021/10/02 05:39:21;;;;;;;7.60;5.88;;;13.70;92.30;;;;;;2037619;29;20052;-96
2021/10/02 05:40:40;;;;;;;8.13;6.03;;;13.70;92.30;;;;;;2044960;29;20047;-96
2021/10/02 05:41:59;;;;;;;8.90;5.80;;;13.70;92.30;;;;;;2035784;29;20048;-96
2021/10/02 05:43:19;;;;;;;8.48;6.20;;;13.60;92.30;;;;;;2032362;29;20484;-96
2021/10/02 05:44:39;;;;;;;8.70;6.40;;;13.60;92.30;;;;;;2038840;29;20036;-96
2021/10/02 05:46:00;;;;;;;8.88;6.80;;;13.60;92.30;;;;;;2032510;29;20044;-95
2021/10/02 05:47:37;;;;;;;8.18;6.15;;;13.60;92.30;;;;;;2030499;29;20036;-96
2021/10/02 05:49:06;;;;;;;7.32;5.38;;;13.60;92.30;;;;;;2034823;29;20037;-96
2021/10/02 05:50:26;;;;;;;8.40;5.78;;;13.60;92.30;;;;;;2041006;29;20039;-95
2021/10/02 05:51:46;;;;;;;7.50;5.63;;;13.50;92.30;;;;;;2048231;29;20068;-95
2021/10/02 05:53:06;;;;;;;7.25;5.28;;;13.50;92.40;;;;;;2043590;29;20478;-96
2021/10/02 05:54:28;;;;;;;7.30;5.25;;;13.50;92.40;;;;;;2045461;29;20028;-96
2021/10/02 05:55:47;;;;;;;6.93;5.10;;;13.50;92.40;;;;;;2043241;29;20052;-96
2021/10/02 05:57:07;;;;;;;7.55;5.18;;;13.50;92.40;;;;;;2048158;29;20415;-95
2021/10/02 05:58:34;;;;;;;7.43;5.40;;;13.40;92.40;;;;;;2051336;28;20458;-96
2021/10/02 05:59:56;;;;;;;6.47;4.95;;;13.40;92.40;;;;;;2042085;29;20032;-96
2021/10/02 06:01:16;;;;;;;6.70;5.40;;;13.40;92.40;;;;;;2042751;29;20472;-96
2021/10/02 06:02:35;;;;;;;6.97;4.70;;;13.40;92.50;;;;;;2048077;29;20035;-96
2021/10/02 06:03:55;;;;;;;7.68;4.82;;;13.40;92.50;;;;;;2038556;29;20052;-95
2021/10/02 06:05:14;;;;;;;7.00;4.80;;;13.40;92.50;;;;;;2036532;29;20058;-96
2021/10/02 06:06:43;;;;;;;6.68;5.00;;;13.30;92.50;;;;;;2035400;29;20036;-96
2021/10/02 06:08:03;;;;;;;6.28;4.50;;;13.30;92.50;;;;;;2045635;29;20035;-96
2021/10/02 06:09:28;;;;;;;6.15;5.20;;;13.40;92.50;;;;;;2035443;29;20060;-96
2021/10/02 06:10:54;;;;;;;5.95;3.83;;;13.30;92.50;;;;;;2048070;28;20039;-95
2021/10/02 06:12:18;;;;;;;6.93;5.13;;;13.30;92.50;;;;;;2041140;29;20036;-96
2021/10/02 06:13:37;;;;;;;7.82;4.80;;;13.30;92.50;;;;;;2035276;29;20040;-96
2021/10/02 06:14:56;;;;;;;5.53;4.60;;;13.30;92.50;;;;;;2032738;29;20040;-95
2021/10/02 06:16:17;;;;;;;7.05;5.13;;;13.30;92.50;;;;;;2035139;29;20119;-95
2021/10/02 06:17:36;;;;;;;7.32;5.22;;;13.30;92.50;;;;;;2039574;29;20072;-95
2021/10/02 06:18:55;;;;;;;6.85;4.95;;;13.30;92.50;;;;;;2039508;29;20031;-96
2021/10/02 06:20:25;;;;;;;6.15;4.85;;;13.30;92.50;;;;;;2043942;29;20063;-95
2021/10/02 06:21:45;;;;;;;5.78;4.55;;;13.30;92.50;;;;;;2043078;29;20516;-95
2021/10/02 06:23:05;;;;;;;6.72;4.25;;;13.30;92.50;;;;;;2036496;29;20417;-94
2021/10/02 06:24:25;;;;;;;6.15;4.82;;;13.30;92.50;;;;;;2040108;29;20071;-96
2021/10/02 06:25:44;;;;;;;6.03;4.78;;;13.30;92.40;;;;;;2044082;29;20036;-95
2021/10/02 06:27:04;;;;;;;7.72;5.15;;;13.30;92.40;;;;;;2046774;29;20036;-95
2021/10/02 06:28:23;;;;;;;7.30;5.10;;;13.30;92.40;;;;;;2041973;29;20127;-95
2021/10/02 06:29:42;;;;;;;6.18;5.18;;;13.30;92.40;;;;;;2035475;29;20040;-94
2021/10/02 06:31:03;;;;;;;8.77;5.35;;;13.40;92.40;;;;;;2040716;29;20039;-94
2021/10/02 06:32:22;;;;;;;6.75;4.78;;;13.40;92.40;;;;;;2040961;29;20044;-95
2021/10/02 06:33:44;;;;;;;5.97;4.85;;;13.40;92.30;;;;;;2032487;29;20036;-95
2021/10/02 06:35:05;;;;;;;6.18;4.63;;;13.40;92.30;;;;;;2045379;29;20051;-95
2021/10/02 06:36:27;;;;;;;6.25;5.15;;;13.40;92.30;;;;;;2048036;29;20044;-94
2021/10/02 06:37:46;;;;;;;6.30;4.72;;;13.40;92.20;;;;;;2043681;29;20039;-96
2021/10/02 06:39:05;;;;;;;5.78;4.55;;;13.50;92.30;;;;;;2037790;29;20047;-96
2021/10/02 06:40:27;;;;;;;6.22;4.57;;;13.50;92.20;;;;;;2035734;29;20052;-96
2021/10/02 06:41:49;;;;;;;6.07;4.65;;;13.50;92.20;;;;;;2036047;29;20424;-95
2021/10/02 06:43:12;;;;;;;6.38;4.70;;;13.50;92.20;;;;;;2034591;29;20036;-96
2021/10/02 06:44:32;;;;;;;5.78;4.60;;;13.50;92.20;;;;;;2047833;29;20552;-96
2021/10/02 06:45:54;;;;;;;7.13;4.32;;;13.50;92.20;;;;;;2045341;29;20150;-96
2021/10/02 06:47:16;;;;;;;6.18;4.40;;;13.50;92.20;;;;;;2048106;29;20075;-95
2021/10/02 06:48:35;;;;;;;6.20;4.65;;;13.50;92.10;;;;;;2041670;29;20039;-96
2021/10/02 06:50:52;;;;;;;8.77;4.80;;;13.50;92.10;;;;;;2112565;27;20412;-95
2021/10/02 06:52:14;;;;;;;7.22;5.00;;;13.50;92.10;;;;;;2109039;28;20036;-95
2021/10/02 06:53:35;;;;;;;8.90;5.15;;;13.50;92.10;;;;;;2106826;28;20056;-94
2021/10/02 06:54:55;;;;;;;7.80;4.95;;;13.60;92.10;;;;;;2101652;28;20024;-95
2021/10/02 06:56:14;;;;;;;6.93;5.18;;;13.60;92.00;;;;;;2091876;28;20036;-96
2021/10/02 06:57:37;;;;;;;5.47;4.47;;;13.60;92.00;;;;;;2095226;28;20033;-95
2021/10/02 06:58:56;;;;;;;8.00;5.15;;;13.60;92.00;;;;;;2103902;28;20032;-95
2021/10/02 07:00:20;;;;;;;8.38;4.90;;;13.60;92.00;;;;;;2098998;28;20029;-95
2021/10/02 07:01:42;;;;;;;6.35;5.05;;;13.70;91.90;;;;;;2095279;28;20024;-95
2021/10/02 07:03:02;;;;;;;7.55;4.80;;;13.70;91.90;;;;;;2096324;28;20029;-95
2021/10/02 07:04:22;;;;;;;7.68;5.43;;;13.70;91.80;;;;;;2103862;28;20056;-95
2021/10/02 07:05:41;;;;;;;7.60;5.30;;;13.70;91.80;;;;;;2098501;28;20029;-96
2021/10/02 07:07:13;;;;;;;;;;;;;;;;;;;;;
2021/10/02 07:08:38;;;;;;;7.60;5.25;;;13.80;91.80;;;;;;2104283;28;20020;-95
2021/10/02 07:09:57;;;;;;;6.95;5.18;;;13.80;91.80;;;;;;2097482;28;21867;-96
2021/10/02 07:11:30;;;;;;;7.07;4.78;;;13.90;91.70;;;;;;2094638;28;20167;-96
2021/10/02 07:12:57;;;;;;;6.82;4.47;;;13.90;91.70;;;;;;2104257;28;20032;-95
2021/10/02 07:14:21;;;;;;;6.82;4.90;;;14.00;91.60;;;;;;2100313;28;20037;-96
2021/10/02 07:15:45;;;;;;;7.35;5.05;;;14.00;91.60;;;;;;2095293;28;20487;-96
2021/10/02 07:17:04;;;;;;;6.95;5.25;;;14.00;91.50;;;;;;2086702;28;20025;-96
2021/10/02 07:18:54;;;;;;;7.20;4.95;;;14.10;91.50;;;;;;2087831;28;20041;-96
2021/10/02 07:20:17;;;;;;;6.43;4.97;;;14.10;91.40;;;;;;2105385;28;20032;-96
2021/10/02 07:21:37;;;;;;;6.95;4.70;;;14.20;91.40;;;;;;2103980;28;20723;-96
2021/10/02 07:23:07;;;;;;;7.70;5.35;;;14.20;91.30;;;;;;2095430;28;20037;-96
2021/10/02 07:24:29;;;;;;;6.55;4.97;;;14.20;91.30;;;;;;2109527;28;20088;-96
2021/10/02 07:25:53;;;;;;;7.88;5.47;;;14.20;91.20;;;;;;2108720;28;20028;-96
2021/10/02 07:27:15;;;;;;;7.28;5.20;;;14.20;91.20;;;;;;2110192;28;20064;-96
2021/10/02 07:28:42;;;;;;;11.45;6.07;;;14.20;91.10;;;;;;2103198;28;20123;-96
2021/10/02 07:30:06;;;;;;;9.02;5.80;;;14.20;91.10;;;;;;2105825;28;20032;-96
2021/10/02 07:31:25;;;;;;;6.45;5.03;;;14.20;91.40;;;;;;2103548;28;20426;-96
2021/10/02 07:32:49;;;;;;;7.32;5.25;;;14.30;91.10;;;;;;2105505;28;20025;-95
2021/10/02 07:34:14;;;;;;;6.75;5.20;;;14.30;91.10;;;;;;2106748;28;20040;-96
2021/10/02 07:35:35;;;;;;;9.30;5.68;;;14.30;91.00;;;;;;2092705;28;20029;-96
2021/10/02 07:37:16;;;;;;;6.43;5.10;;;14.30;91.00;;;;;;2088652;28;20056;-96
2021/10/02 07:38:37;;;;;;;7.70;6.23;;;14.30;91.00;;;;;;2099010;28;20029;-96
2021/10/02 07:40:24;;;;;;;;;;;;;;;;;;;;;
2021/10/02 07:43:57;;;;;;;6.60;5.25;;;14.30;90.90;;;;;;2095476;28;20033;-96
2021/10/02 07:45:28;;;;;;;7.53;5.25;;;14.30;90.90;;;;;;2098521;28;20112;-96
2021/10/02 07:47:21;;;;;;;6.93;4.93;;;14.30;90.90;;;;;;2112626;28;20020;-96
2021/10/02 07:49:06;;;;;;;7.03;5.10;;;14.30;90.80;;;;;;2097405;28;20032;-96
2021/10/02 07:51:09;;;;;;;6.30;4.88;;;14.30;90.90;;;;;;2099287;28;20120;-96
2021/10/02 07:53:12;;;;;;;7.20;5.38;;;14.30;90.80;;;;;;2090587;28;20025;-96
2021/10/02 07:54:37;;;;;;;9.27;5.80;;;14.30;90.80;;;;;;2074887;28;20046;-96
2021/10/02 07:55:57;;;;;;;7.32;5.30;;;14.30;90.70;;;;;;2092675;28;20029;-95
2021/10/02 07:57:43;;;;;;;;;;;;;;;;;;;;;
2021/10/02 08:00:00;;;;;;;7.53;5.50;;;14.30;90.60;;;;;;2107701;28;20036;-96
2021/10/02 08:01:24;;;;;;;9.32;5.50;;;14.40;90.60;;;;;;2089974;28;20029;-96
2021/10/02 08:02:55;;;;;;;6.85;5.32;;;14.40;90.50;;;;;;2110921;28;20024;-96
2021/10/02 08:04:17;;;;;;;;;;;14.50;90.50;;;;;;2105264;28;20021;-96
2021/10/02 08:06:14;;;;;;;8.80;6.03;;;14.50;90.50;;;;;;2103553;28;20304;-96
2021/10/02 08:07:58;;;;;;;7.60;5.47;;;14.50;90.40;;;;;;2102746;28;20021;-95
2021/10/02 08:09:20;;;;;;;9.60;5.78;;;14.50;90.40;;;;;;2098822;28;20111;-96
2021/10/02 08:10:47;;;;;;;7.65;5.30;;;14.60;90.40;;;;;;2083381;28;20029;-95
2021/10/02 08:12:12;;;;;;;7.45;5.35;;;14.60;90.30;;;;;;2074875;28;20101;-95
2021/10/02 08:13:43;;;;;;;7.82;5.43;;;14.70;90.30;;;;;;2106723;28;20024;-95
2021/10/02 08:15:06;;;;;;;8.20;5.40;;;14.70;90.20;;;;;;2089749;28;20034;-96
2021/10/02 08:16:56;;;;;;;6.18;5.07;;;14.70;90.20;;;;;;2096887;28;20021;-94
2021/10/02 08:18:28;;;;;;;5.88;4.50;;;14.80;90.20;;;;;;2103439;28;20492;-96
2021/10/02 08:20:09;;;;;;;;;;;;;;;;;;;;;
2021/10/02 08:21:47;;;;;;;6.45;4.68;;;14.80;90.10;;;;;;2100628;28;20029;-96